KGRB/GRB METAR and TAF weather

Enter ICAO airport designator
Station Type Date Time Source
KGRB METAR 2020/04/07 15:53 UTC NOAA

KGRB 071553Z 08006KT 10SM OVC012 13/08 A2966 RMK AO2 RAB12E29 SLP047 P0000 T01330083


Station Type Date Time Source
KGRB Decoded METAR 2020/04/07 15:53 UTC NOAA

AUSTIN STRAUBEL INTERNATIONAL AIRPORT , WI, United States (KGRB) 44-29N 088-08W 205M
Apr 07, 2020 - 11:53 AM EDT / 2020.04.07 1553 UTC
Wind: from the E (080 degrees) at 7 MPH (6 KT):0
Visibility: 10 mile(s):0
Sky conditions: overcast
Precipitation last hour: A trace
Temperature: 55.9 F (13.3 C)
Dew Point: 46.9 F (8.3 C)
Relative Humidity: 71%
Pressure (altimeter): 29.66 in. Hg (1004 hPa)
ob: KGRB 071553Z 08006KT 10SM OVC012 13/08 A2966 RMK AO2 RAB12E29 SLP047 P0000 T01330083
cycle: 16

Station Type Date Time Source
KGRB TAF 2020/04/07 12:34 UTC NOAA

TAF KGRB 071132Z 0712/0812 11004KT P6SM -SHRA OVC014
FM071500 15007KT 6SM -SHRA BR OVC012
FM072000 22009G15KT 5SM -SHRA BR OVC020
TEMPO 0720/0722 2SM -TSRA OVC008CB
FM072300 30005KT P6SM BKN030
FM080100 33005KT P6SM SKC

Example: see airport list